createdAt,value
2019-02-08T00:00:24.478Z,0.00
2019-02-08T00:01:24.488Z,0.00
2019-02-08T00:02:24.559Z,0.00
2019-02-08T00:03:24.510Z,0.00
2019-02-08T00:04:24.521Z,0.00
2019-02-08T00:05:24.535Z,0.00
2019-02-08T00:06:24.552Z,0.00
2019-02-08T00:07:24.559Z,0.00
2019-02-08T00:08:24.564Z,0.00
2019-02-08T00:09:24.579Z,0.00
2019-02-08T00:10:24.588Z,0.00
2019-02-08T00:11:24.601Z,0.00
2019-02-08T00:12:24.610Z,0.00
2019-02-08T00:13:24.620Z,0.00
2019-02-08T00:14:24.633Z,0.00
2019-02-08T00:15:24.645Z,0.00
2019-02-08T00:16:24.656Z,0.00
2019-02-08T00:17:24.681Z,0.00
2019-02-08T00:18:24.769Z,0.00
2019-02-08T00:19:24.757Z,0.00
2019-02-08T00:20:24.778Z,0.00
2019-02-08T00:21:24.762Z,0.00
2019-02-08T00:22:24.759Z,0.00
2019-02-08T00:23:26.964Z,0.00
2019-02-08T00:24:24.794Z,0.00
2019-02-08T00:25:24.827Z,0.00
2019-02-08T00:26:24.826Z,0.00
2019-02-08T00:27:24.827Z,0.00
2019-02-08T00:28:24.819Z,0.00
2019-02-08T00:29:24.825Z,0.00
2019-02-08T00:30:24.815Z,0.00
2019-02-08T00:31:24.830Z,0.00
2019-02-08T00:32:24.855Z,0.00
2019-02-08T00:33:24.851Z,0.00
2019-02-08T00:34:24.858Z,0.00
2019-02-08T00:35:24.870Z,0.00
2019-02-08T00:36:24.880Z,0.00
2019-02-08T00:37:24.896Z,0.00
2019-02-08T00:38:24.904Z,0.00
2019-02-08T00:39:24.917Z,0.00
2019-02-08T00:40:24.926Z,0.00
2019-02-08T00:41:24.937Z,0.00
2019-02-08T00:42:24.949Z,0.00
2019-02-08T00:43:24.959Z,0.00
2019-02-08T00:44:24.972Z,0.00
2019-02-08T00:45:24.981Z,0.00
2019-02-08T00:46:24.996Z,0.00
2019-02-08T00:47:25.005Z,0.00
2019-02-08T00:48:25.018Z,0.00
2019-02-08T00:49:25.030Z,0.00
2019-02-08T00:50:25.040Z,0.00
2019-02-08T00:51:25.055Z,0.00
2019-02-08T00:52:25.061Z,0.00
2019-02-08T00:53:25.072Z,0.00
2019-02-08T00:54:25.085Z,0.00
2019-02-08T00:55:25.096Z,0.00
2019-02-08T00:56:25.110Z,0.00
2019-02-08T00:57:25.118Z,0.00
2019-02-08T00:58:25.130Z,0.00
2019-02-08T00:59:25.141Z,0.00
2019-02-08T01:00:25.153Z,0.00
2019-02-08T01:01:25.164Z,0.00
2019-02-08T01:02:25.176Z,0.00
2019-02-08T01:03:25.186Z,0.00
2019-02-08T01:04:25.199Z,0.00
2019-02-08T01:05:25.208Z,0.00
2019-02-08T01:06:25.222Z,0.00
2019-02-08T01:07:25.232Z,0.00
2019-02-08T01:08:25.242Z,0.00
2019-02-08T01:09:25.260Z,0.00
2019-02-08T01:10:25.266Z,0.00
2019-02-08T01:11:25.274Z,0.00
2019-02-08T01:12:25.289Z,0.00
2019-02-08T01:13:25.297Z,0.00
2019-02-08T01:14:25.308Z,0.00
2019-02-08T01:15:25.324Z,0.00
2019-02-08T01:16:25.332Z,0.00
2019-02-08T01:17:25.342Z,0.00
2019-02-08T01:18:25.355Z,0.00
2019-02-08T01:19:25.364Z,0.00
2019-02-08T01:20:25.375Z,0.00
2019-02-08T01:21:25.385Z,0.00
2019-02-08T01:22:25.399Z,0.00
2019-02-08T01:23:25.411Z,0.00
2019-02-08T01:24:25.434Z,0.00
2019-02-08T01:25:25.430Z,0.00
2019-02-08T01:26:25.443Z,0.00
2019-02-08T01:27:25.455Z,0.00
2019-02-08T01:28:25.463Z,0.00
2019-02-08T01:29:25.557Z,0.00
2019-02-08T01:30:25.487Z,0.00
2019-02-08T01:31:25.500Z,0.00
2019-02-08T01:32:25.509Z,0.00
2019-02-08T01:33:25.519Z,0.00
2019-02-08T01:34:25.531Z,0.00
2019-02-08T01:35:25.543Z,0.00
2019-02-08T01:36:25.552Z,0.00
2019-02-08T01:37:25.570Z,0.00
2019-02-08T01:38:25.576Z,0.00
2019-02-08T01:39:25.585Z,0.00
2019-02-08T01:40:25.597Z,0.00
2019-02-08T01:41:25.608Z,0.00
2019-02-08T01:42:25.618Z,0.00
2019-02-08T01:43:25.630Z,0.00
2019-02-08T01:44:25.640Z,0.00
2019-02-08T01:45:25.651Z,0.00
2019-02-08T01:46:25.662Z,0.00
2019-02-08T01:47:25.678Z,0.00
2019-02-08T01:48:25.685Z,0.00
2019-02-08T01:49:25.695Z,0.00
2019-02-08T01:50:25.706Z,0.00
2019-02-08T01:51:25.717Z,0.00
2019-02-08T01:52:25.728Z,0.00
2019-02-08T01:53:25.739Z,0.00
2019-02-08T01:54:25.756Z,0.00
2019-02-08T01:55:25.761Z,0.00
2019-02-08T01:56:25.772Z,0.00
2019-02-08T01:57:25.783Z,0.00
2019-02-08T01:58:25.793Z,0.00
2019-02-08T01:59:25.820Z,0.00
2019-02-08T02:00:25.815Z,0.00
2019-02-08T02:01:25.824Z,0.00
2019-02-08T02:02:25.836Z,0.00
2019-02-08T02:03:25.848Z,0.00
2019-02-08T02:04:25.859Z,0.00
2019-02-08T02:05:25.870Z,0.00
2019-02-08T02:06:25.878Z,0.00
2019-02-08T02:07:25.892Z,0.00
2019-02-08T02:08:25.903Z,0.00
2019-02-08T02:09:25.911Z,0.00
2019-02-08T02:10:25.924Z,0.00
2019-02-08T02:11:25.933Z,0.00
2019-02-08T02:12:25.948Z,0.00
2019-02-08T02:13:25.955Z,0.00
2019-02-08T02:14:25.974Z,0.00
2019-02-08T02:15:25.978Z,0.00
2019-02-08T02:16:25.989Z,0.00
2019-02-08T02:17:25.999Z,0.00
2019-02-08T02:18:26.010Z,0.00
2019-02-08T02:19:26.024Z,0.00
2019-02-08T02:20:26.032Z,0.00
2019-02-08T02:21:26.042Z,0.00
2019-02-08T02:22:26.054Z,0.00
2019-02-08T02:23:26.065Z,0.00
2019-02-08T02:24:26.074Z,0.00
2019-02-08T02:25:26.088Z,0.00
2019-02-08T02:26:26.099Z,0.00
2019-02-08T02:27:26.109Z,0.00
2019-02-08T02:28:26.125Z,0.00
2019-02-08T02:29:26.130Z,0.00
2019-02-08T02:30:26.141Z,0.00
2019-02-08T02:31:26.151Z,0.00
2019-02-08T02:32:26.163Z,0.00
2019-02-08T02:33:26.175Z,0.00
2019-02-08T02:34:26.188Z,0.00
2019-02-08T02:35:26.197Z,0.00
2019-02-08T02:36:26.213Z,0.00
2019-02-08T02:37:26.216Z,0.00
2019-02-08T02:38:26.230Z,0.00
2019-02-08T02:39:26.239Z,0.00
2019-02-08T02:40:26.248Z,0.00
2019-02-08T02:41:26.259Z,0.00
2019-02-08T02:42:26.273Z,0.00
2019-02-08T02:43:26.279Z,0.00
2019-02-08T02:44:26.290Z,0.00
2019-02-08T02:45:26.303Z,0.00
2019-02-08T02:46:26.316Z,0.00
2019-02-08T02:47:26.326Z,0.00
2019-02-08T02:48:26.333Z,0.00
2019-02-08T02:49:26.345Z,0.00
2019-02-08T02:50:26.359Z,0.00
2019-02-08T02:51:26.373Z,0.00
2019-02-08T02:52:26.377Z,0.00
2019-02-08T02:53:26.392Z,0.00
2019-02-08T02:54:26.398Z,0.00
2019-02-08T02:55:26.410Z,0.00
2019-02-08T02:56:26.419Z,0.00
2019-02-08T02:57:26.430Z,0.00
2019-02-08T02:58:26.444Z,0.00
2019-02-08T02:59:26.471Z,0.00
2019-02-08T03:00:26.466Z,0.00
2019-02-08T03:01:26.484Z,0.00
2019-02-08T03:02:26.519Z,0.00
2019-02-08T03:03:26.578Z,0.00
2019-02-08T03:04:26.564Z,0.00
2019-02-08T03:05:26.555Z,0.00
2019-02-08T03:06:26.594Z,0.00
2019-02-08T03:07:26.620Z,0.00
2019-02-08T03:08:26.624Z,0.00
2019-02-08T03:09:26.624Z,0.00
2019-02-08T03:10:26.628Z,0.00
2019-02-08T03:11:26.642Z,0.00
2019-02-08T03:12:26.622Z,0.00
2019-02-08T03:13:26.624Z,0.00
2019-02-08T03:14:26.623Z,0.00
2019-02-08T03:15:26.626Z,0.00
2019-02-08T03:16:26.640Z,0.00
2019-02-08T03:17:26.649Z,0.00
2019-02-08T03:18:26.657Z,0.00
2019-02-08T03:19:26.674Z,0.00
2019-02-08T03:20:26.679Z,0.00
2019-02-08T03:21:26.691Z,0.00
2019-02-08T03:22:26.699Z,0.00
2019-02-08T03:23:26.713Z,0.00
2019-02-08T03:24:26.721Z,0.00
2019-02-08T03:25:26.732Z,0.00
2019-02-08T03:26:26.742Z,0.00
2019-02-08T03:27:26.760Z,0.00
2019-02-08T03:28:26.765Z,0.00
2019-02-08T03:29:26.785Z,0.00
2019-02-08T03:30:26.787Z,0.00
2019-02-08T03:31:26.799Z,0.00
2019-02-08T03:32:26.811Z,0.00
2019-02-08T03:33:26.833Z,0.00
2019-02-08T03:34:26.831Z,0.00
2019-02-08T03:35:26.842Z,0.00
2019-02-08T03:36:26.849Z,0.00
2019-02-08T03:37:26.861Z,0.00
2019-02-08T03:38:26.875Z,0.00
2019-02-08T03:39:26.882Z,0.00
2019-02-08T03:40:26.897Z,0.00
2019-02-08T03:41:26.907Z,0.00
2019-02-08T03:42:26.916Z,0.00
2019-02-08T03:43:26.929Z,0.00
2019-02-08T03:44:26.939Z,0.00
2019-02-08T03:45:26.952Z,0.00
2019-02-08T03:46:26.958Z,0.00
2019-02-08T03:47:26.970Z,0.00
2019-02-08T03:48:26.982Z,0.00
2019-02-08T03:49:26.991Z,0.00
2019-02-08T03:50:27.003Z,0.00
2019-02-08T03:51:27.014Z,0.00
2019-02-08T03:52:27.023Z,0.00
2019-02-08T03:53:27.079Z,0.00
2019-02-08T03:54:27.047Z,0.00
2019-02-08T03:55:27.062Z,0.00
2019-02-08T03:56:27.068Z,0.00
2019-02-08T03:57:27.089Z,0.00
2019-02-08T03:58:27.090Z,0.00
2019-02-08T03:59:27.112Z,0.00
2019-02-08T04:00:27.111Z,0.00
2019-02-08T04:01:27.127Z,0.00
2019-02-08T04:02:27.135Z,0.00
2019-02-08T04:03:27.146Z,0.00
2019-02-08T04:04:27.156Z,0.00
2019-02-08T04:05:27.166Z,0.00
2019-02-08T04:06:27.175Z,0.00
2019-02-08T04:07:27.187Z,0.00
2019-02-08T04:08:27.200Z,0.00
2019-02-08T04:09:27.210Z,0.00
2019-02-08T04:10:27.235Z,0.00
2019-02-08T04:11:27.233Z,0.00
2019-02-08T04:12:27.240Z,0.00
2019-02-08T04:13:27.253Z,0.00
2019-02-08T04:14:27.292Z,0.00
2019-02-08T04:15:27.273Z,0.00
2019-02-08T04:16:27.290Z,0.00
2019-02-08T04:17:27.336Z,0.00
2019-02-08T04:18:27.309Z,0.00
2019-02-08T04:19:27.319Z,0.00
2019-02-08T04:20:27.336Z,0.00
2019-02-08T04:21:27.340Z,0.00
2019-02-08T04:22:27.351Z,0.00
2019-02-08T04:23:27.363Z,0.00
2019-02-08T04:24:30.070Z,0.00
2019-02-08T04:25:27.385Z,0.00
2019-02-08T04:26:27.397Z,0.00
2019-02-08T04:27:27.405Z,0.00
2019-02-08T04:28:27.417Z,0.00
2019-02-08T04:29:27.428Z,0.00
2019-02-08T04:30:27.438Z,0.00
2019-02-08T04:31:27.449Z,0.00
2019-02-08T04:32:27.460Z,0.00
2019-02-08T04:33:27.476Z,0.00
2019-02-08T04:34:27.482Z,0.00
2019-02-08T04:35:27.494Z,0.00
2019-02-08T04:36:27.503Z,0.00
2019-02-08T04:37:27.515Z,0.00
2019-02-08T04:38:27.523Z,0.00
2019-02-08T04:39:27.536Z,0.00
2019-02-08T04:40:27.547Z,0.00
2019-02-08T04:41:27.557Z,0.00
2019-02-08T04:42:27.570Z,0.00
2019-02-08T04:43:27.581Z,0.00
2019-02-08T04:44:27.592Z,0.00
2019-02-08T04:45:27.605Z,0.00
2019-02-08T04:46:27.613Z,0.00
2019-02-08T04:47:27.623Z,0.00
2019-02-08T04:48:27.635Z,0.00
2019-02-08T04:49:27.643Z,0.00
2019-02-08T04:50:27.654Z,0.00
2019-02-08T04:51:27.667Z,0.00
2019-02-08T04:52:27.675Z,0.00
2019-02-08T04:53:27.694Z,0.00
2019-02-08T04:54:27.703Z,0.00
2019-02-08T04:55:27.710Z,0.00
2019-02-08T04:56:27.720Z,0.00
2019-02-08T04:57:27.731Z,0.00
2019-02-08T04:58:35.142Z,0.00
2019-02-08T04:59:27.755Z,0.00
2019-02-08T05:00:27.765Z,0.00
2019-02-08T05:01:27.774Z,0.00
2019-02-08T05:02:27.785Z,0.00
2019-02-08T05:03:27.799Z,0.00
2019-02-08T05:04:27.807Z,0.00
2019-02-08T05:05:27.819Z,0.00
2019-02-08T05:06:27.831Z,0.00
2019-02-08T05:07:27.842Z,0.00
2019-02-08T05:08:27.848Z,0.00
2019-02-08T05:09:27.861Z,0.00
2019-02-08T05:10:27.879Z,0.00
2019-02-08T05:11:27.888Z,0.00
2019-02-08T05:12:27.895Z,0.00
2019-02-08T05:13:27.903Z,0.00
2019-02-08T05:14:27.915Z,0.00
2019-02-08T05:15:27.925Z,0.00
2019-02-08T05:16:27.941Z,0.00
2019-02-08T05:17:27.948Z,0.00
2019-02-08T05:18:27.973Z,0.00
2019-02-08T05:19:27.967Z,0.00
2019-02-08T05:20:27.987Z,0.00
2019-02-08T05:21:27.990Z,0.00
2019-02-08T05:22:28.000Z,0.00
2019-02-08T05:23:28.050Z,0.00
2019-02-08T05:24:28.024Z,0.00
2019-02-08T05:25:28.035Z,0.00
2019-02-08T05:26:28.044Z,0.00
2019-02-08T05:27:28.056Z,0.00
2019-02-08T05:28:28.073Z,0.00
2019-02-08T05:29:28.077Z,0.00
2019-02-08T05:30:28.090Z,0.00
2019-02-08T05:31:28.100Z,0.00
2019-02-08T05:32:28.109Z,0.00
2019-02-08T05:33:28.121Z,0.00
2019-02-08T05:34:28.149Z,0.00
2019-02-08T05:35:28.143Z,0.00
2019-02-08T05:36:28.150Z,0.00
2019-02-08T05:37:28.164Z,0.00
2019-02-08T05:38:28.176Z,0.00
2019-02-08T05:39:28.185Z,0.00
2019-02-08T05:40:28.194Z,0.00
2019-02-08T05:41:28.205Z,0.00
2019-02-08T05:42:28.224Z,0.00
2019-02-08T05:43:28.229Z,0.00
2019-02-08T05:44:28.240Z,0.00
2019-02-08T05:45:28.248Z,0.00
2019-02-08T05:46:28.260Z,0.00
2019-02-08T05:47:28.286Z,0.00
2019-02-08T05:48:28.359Z,0.00
2019-02-08T05:49:28.351Z,0.00
2019-02-08T05:50:28.357Z,0.00
2019-02-08T05:51:28.365Z,0.00
2019-02-08T05:52:28.354Z,0.00
2019-02-08T05:53:28.417Z,0.00
2019-02-08T05:54:28.429Z,0.00
2019-02-08T05:55:28.412Z,0.00
2019-02-08T05:56:28.412Z,0.00
2019-02-08T05:57:29.081Z,0.00
2019-02-08T05:58:28.424Z,0.00
2019-02-08T05:59:28.414Z,0.00
2019-02-08T06:00:28.411Z,0.00
2019-02-08T06:01:28.423Z,0.00
2019-02-08T06:02:28.432Z,0.00
2019-02-08T06:03:28.445Z,0.00
2019-02-08T06:04:28.454Z,0.00
2019-02-08T06:05:28.465Z,0.00
2019-02-08T06:06:28.478Z,0.00
2019-02-08T06:07:28.485Z,0.00
2019-02-08T06:08:28.495Z,0.00
2019-02-08T06:09:28.507Z,0.00
2019-02-08T06:10:28.518Z,0.00
2019-02-08T06:11:28.534Z,0.00
2019-02-08T06:12:28.545Z,0.00
2019-02-08T06:13:28.550Z,0.00
2019-02-08T06:14:28.562Z,0.00
2019-02-08T06:15:28.575Z,0.00
2019-02-08T06:16:28.581Z,0.00
2019-02-08T06:17:28.592Z,0.00
2019-02-08T06:18:28.605Z,0.00
2019-02-08T06:19:28.618Z,0.00
2019-02-08T06:20:28.624Z,0.00
2019-02-08T06:21:28.636Z,0.00
2019-02-08T06:22:28.650Z,0.00
2019-02-08T06:23:28.660Z,0.00
2019-02-08T06:24:28.670Z,0.00
2019-02-08T06:25:28.682Z,0.00
2019-02-08T06:26:28.688Z,0.00
2019-02-08T06:27:28.706Z,0.00
2019-02-08T06:28:28.716Z,5.63
2019-02-08T06:29:28.723Z,5.63
2019-02-08T06:30:28.734Z,5.63
2019-02-08T06:31:28.744Z,5.63
2019-02-08T06:32:28.757Z,5.63
2019-02-08T06:33:28.770Z,5.63
2019-02-08T06:34:28.774Z,5.63
2019-02-08T06:35:28.791Z,11.25
2019-02-08T06:36:28.799Z,11.25
2019-02-08T06:37:28.809Z,11.25
2019-02-08T06:38:28.818Z,11.25
2019-02-08T06:39:28.830Z,11.25
2019-02-08T06:40:28.848Z,16.88
2019-02-08T06:41:28.850Z,16.88
2019-02-08T06:42:28.867Z,16.88
2019-02-08T06:43:28.872Z,16.88
2019-02-08T06:44:28.882Z,22.50
2019-02-08T06:45:28.893Z,22.50
2019-02-08T06:46:28.905Z,22.50
2019-02-08T06:47:28.914Z,28.13
2019-02-08T06:48:28.930Z,28.13
2019-02-08T06:49:28.940Z,28.13
2019-02-08T06:50:28.950Z,28.13
2019-02-08T06:51:28.959Z,33.75
2019-02-08T06:52:28.965Z,33.75
2019-02-08T06:53:28.979Z,33.75
2019-02-08T06:54:28.988Z,39.38
2019-02-08T06:55:28.999Z,39.38
2019-02-08T06:56:29.011Z,39.38
2019-02-08T06:57:29.020Z,45.00
2019-02-08T06:58:29.035Z,45.00
2019-02-08T06:59:29.043Z,45.00
2019-02-08T07:00:29.053Z,50.63
2019-02-08T07:01:29.063Z,50.63
2019-02-08T07:02:29.077Z,50.63
2019-02-08T07:03:29.085Z,50.63
2019-02-08T07:04:29.096Z,56.25
2019-02-08T07:05:29.106Z,56.25
2019-02-08T07:06:29.117Z,61.88
2019-02-08T07:07:29.128Z,61.88
2019-02-08T07:08:29.137Z,61.88
2019-02-08T07:09:29.156Z,61.88
2019-02-08T07:10:29.163Z,67.50
2019-02-08T07:11:29.171Z,67.50
2019-02-08T07:12:29.181Z,67.50
2019-02-08T07:13:29.192Z,73.13
2019-02-08T07:14:29.202Z,73.13
2019-02-08T07:15:29.211Z,73.13
2019-02-08T07:16:29.222Z,78.75
2019-02-08T07:17:29.235Z,78.75
2019-02-08T07:18:29.245Z,78.75
2019-02-08T07:19:29.255Z,84.38
2019-02-08T07:20:29.264Z,84.38
2019-02-08T07:21:29.275Z,84.38
2019-02-08T07:22:29.286Z,90.00
2019-02-08T07:23:29.297Z,90.00
2019-02-08T07:24:29.307Z,90.00
2019-02-08T07:25:29.319Z,95.63
2019-02-08T07:26:29.329Z,95.63
2019-02-08T07:27:29.571Z,95.63
2019-02-08T07:28:29.349Z,95.63
2019-02-08T07:29:29.362Z,101.25
2019-02-08T07:30:29.372Z,101.25
2019-02-08T07:31:29.388Z,101.25
2019-02-08T07:32:29.393Z,101.25
2019-02-08T07:33:29.409Z,106.88
2019-02-08T07:34:29.416Z,106.88
2019-02-08T07:35:29.430Z,106.88
2019-02-08T07:36:29.439Z,106.88
2019-02-08T07:37:29.450Z,112.50
2019-02-08T07:38:29.460Z,112.50
2019-02-08T07:39:29.471Z,112.50
2019-02-08T07:40:29.480Z,118.13
2019-02-08T07:41:29.491Z,118.13
2019-02-08T07:42:29.505Z,118.13
2019-02-08T07:43:29.514Z,123.75
2019-02-08T07:44:29.523Z,123.75
2019-02-08T07:45:29.535Z,123.75
2019-02-08T07:46:29.548Z,123.75
2019-02-08T07:47:29.557Z,135.00
2019-02-08T07:48:29.666Z,135.00
2019-02-08T07:49:29.580Z,135.00
2019-02-08T07:50:29.590Z,135.00
2019-02-08T07:51:29.604Z,135.00
2019-02-08T07:52:29.611Z,140.63
2019-02-08T07:53:29.624Z,163.13
2019-02-08T07:54:29.637Z,185.63
2019-02-08T07:55:29.648Z,202.50
2019-02-08T07:56:29.656Z,185.63
2019-02-08T07:57:29.670Z,191.25
2019-02-08T07:58:29.684Z,213.75
2019-02-08T07:59:29.692Z,230.63
2019-02-08T08:00:29.702Z,236.25
2019-02-08T08:01:29.713Z,225.00
2019-02-08T08:02:29.725Z,196.88
2019-02-08T08:03:29.736Z,191.25
2019-02-08T08:04:29.746Z,180.00
2019-02-08T08:05:29.760Z,196.88
2019-02-08T08:06:29.776Z,219.38
2019-02-08T08:07:29.783Z,236.25
2019-02-08T08:08:29.792Z,236.25
2019-02-08T08:09:29.806Z,241.88
2019-02-08T08:10:29.819Z,253.13
2019-02-08T08:11:29.830Z,264.38
2019-02-08T08:12:29.842Z,264.38
2019-02-08T08:13:29.854Z,264.38
2019-02-08T08:14:29.866Z,270.00
2019-02-08T08:15:29.879Z,258.75
2019-02-08T08:16:29.892Z,247.50
2019-02-08T08:17:29.904Z,253.13
2019-02-08T08:18:29.916Z,270.00
2019-02-08T08:19:29.930Z,281.25
2019-02-08T08:20:29.938Z,286.88
2019-02-08T08:21:29.952Z,270.00
2019-02-08T08:22:29.966Z,253.13
2019-02-08T08:23:29.978Z,258.75
2019-02-08T08:24:29.989Z,275.63
2019-02-08T08:25:34.144Z,286.88
2019-02-08T08:26:30.018Z,281.25
2019-02-08T08:27:30.030Z,253.13
2019-02-08T08:28:30.040Z,225.00
2019-02-08T08:29:30.067Z,202.50
2019-02-08T08:30:30.080Z,180.00
2019-02-08T08:31:30.126Z,168.75
2019-02-08T08:32:30.157Z,168.75
2019-02-08T08:33:30.150Z,163.13
2019-02-08T08:34:30.157Z,168.75
2019-02-08T08:35:30.168Z,174.38
2019-02-08T08:36:30.208Z,180.00
2019-02-08T08:37:30.210Z,174.38
2019-02-08T08:38:30.220Z,180.00
2019-02-08T08:39:30.225Z,180.00
2019-02-08T08:40:30.244Z,180.00
2019-02-08T08:41:30.221Z,180.00
2019-02-08T08:42:30.224Z,180.00
2019-02-08T08:43:30.238Z,180.00
2019-02-08T08:44:30.252Z,180.00
2019-02-08T08:45:30.265Z,180.00
2019-02-08T08:46:30.275Z,180.00
2019-02-08T08:47:30.291Z,180.00
2019-02-08T08:48:30.303Z,180.00
2019-02-08T08:49:30.316Z,180.00
2019-02-08T08:50:30.326Z,180.00
2019-02-08T08:51:30.342Z,185.63
2019-02-08T08:52:30.353Z,185.63
2019-02-08T08:53:30.368Z,191.25
2019-02-08T08:54:30.380Z,191.25
2019-02-08T08:55:30.393Z,208.13
2019-02-08T08:56:30.405Z,253.13
2019-02-08T08:57:30.420Z,337.50
2019-02-08T08:58:30.433Z,393.75
2019-02-08T08:59:30.447Z,405.00
2019-02-08T09:00:30.458Z,421.88
2019-02-08T09:01:30.471Z,416.25
2019-02-08T09:02:30.486Z,365.63
2019-02-08T09:03:30.500Z,292.50
2019-02-08T09:04:30.510Z,241.88
2019-02-08T09:05:30.524Z,213.75
2019-02-08T09:06:30.539Z,202.50
2019-02-08T09:07:30.553Z,196.88
2019-02-08T09:08:30.566Z,191.25
2019-02-08T09:09:30.584Z,196.88
2019-02-08T09:10:30.593Z,196.88
2019-02-08T09:11:30.609Z,191.25
2019-02-08T09:12:30.619Z,196.88
2019-02-08T09:13:30.635Z,196.88
2019-02-08T09:14:30.652Z,191.25
2019-02-08T09:15:30.661Z,196.88
2019-02-08T09:16:30.675Z,196.88
2019-02-08T09:17:30.689Z,196.88
2019-02-08T09:18:30.703Z,191.25
2019-02-08T09:19:30.718Z,196.88
2019-02-08T09:20:30.731Z,196.88
2019-02-08T09:21:30.744Z,196.88
2019-02-08T09:22:30.760Z,196.88
2019-02-08T09:23:30.770Z,196.88
2019-02-08T09:24:30.786Z,196.88
2019-02-08T09:25:30.799Z,202.50
2019-02-08T09:26:30.812Z,202.50
2019-02-08T09:27:30.827Z,202.50
2019-02-08T09:28:30.840Z,202.50
2019-02-08T09:29:30.854Z,202.50
2019-02-08T09:30:30.871Z,202.50
2019-02-08T09:31:30.882Z,202.50
2019-02-08T09:32:30.894Z,196.88
2019-02-08T09:33:30.912Z,196.88
2019-02-08T09:34:30.924Z,196.88
2019-02-08T09:35:30.938Z,202.50
2019-02-08T09:36:30.951Z,202.50
2019-02-08T09:37:30.966Z,208.13
2019-02-08T09:38:30.981Z,208.13
2019-02-08T09:39:30.993Z,208.13
2019-02-08T09:40:31.005Z,208.13
2019-02-08T09:41:31.025Z,202.50
2019-02-08T09:42:31.034Z,202.50
2019-02-08T09:43:31.049Z,202.50
2019-02-08T09:44:31.064Z,202.50
2019-02-08T09:45:31.077Z,202.50
2019-02-08T09:46:31.091Z,208.13
2019-02-08T09:47:31.104Z,202.50
2019-02-08T09:48:31.119Z,208.13
2019-02-08T09:49:31.134Z,208.13
2019-02-08T09:50:31.147Z,208.13
2019-02-08T09:51:31.160Z,208.13
2019-02-08T09:52:31.174Z,208.13
2019-02-08T09:53:31.191Z,202.50
2019-02-08T09:54:31.203Z,202.50
2019-02-08T09:55:31.219Z,202.50
2019-02-08T09:56:31.235Z,202.50
2019-02-08T09:57:31.245Z,208.13
2019-02-08T09:58:31.260Z,208.13
2019-02-08T09:59:31.274Z,208.13
2019-02-08T10:00:31.288Z,213.75
2019-02-08T10:01:31.301Z,213.75
2019-02-08T10:02:31.316Z,213.75
2019-02-08T10:03:31.332Z,213.75
2019-02-08T10:04:31.346Z,213.75
2019-02-08T10:05:31.360Z,213.75
2019-02-08T10:06:31.377Z,213.75
2019-02-08T10:07:31.389Z,213.75
2019-02-08T10:08:31.405Z,219.38
2019-02-08T10:09:31.418Z,219.38
2019-02-08T10:10:31.430Z,225.00
2019-02-08T10:11:31.447Z,219.38
2019-02-08T10:12:31.463Z,219.38
2019-02-08T10:13:31.475Z,225.00
2019-02-08T10:14:31.488Z,225.00
2019-02-08T10:15:31.509Z,225.00
2019-02-08T10:16:31.519Z,230.63
2019-02-08T10:17:31.534Z,225.00
2019-02-08T10:18:31.550Z,225.00
2019-02-08T10:19:31.563Z,225.00
2019-02-08T10:20:31.577Z,225.00
2019-02-08T10:21:31.609Z,225.00
2019-02-08T10:22:31.604Z,236.25
2019-02-08T10:23:31.621Z,253.13
2019-02-08T10:24:31.634Z,270.00
2019-02-08T10:25:31.651Z,309.38
2019-02-08T10:26:31.665Z,337.50
2019-02-08T10:27:31.684Z,365.63
2019-02-08T10:28:31.694Z,388.13
2019-02-08T10:29:31.710Z,399.38
2019-02-08T10:30:31.724Z,427.50
2019-02-08T10:31:31.742Z,455.63
2019-02-08T10:32:31.752Z,489.38
2019-02-08T10:33:31.768Z,528.75
2019-02-08T10:34:32.789Z,556.88
2019-02-08T10:35:31.798Z,579.38
2019-02-08T10:36:31.813Z,590.63
2019-02-08T10:37:31.829Z,596.25
2019-02-08T10:38:31.844Z,601.88
2019-02-08T10:39:31.860Z,607.50
2019-02-08T10:40:31.874Z,607.50
2019-02-08T10:41:31.889Z,630.00
2019-02-08T10:42:31.922Z,652.50
2019-02-08T10:43:31.989Z,652.50
2019-02-08T10:44:31.991Z,663.75
2019-02-08T10:45:31.999Z,669.38
2019-02-08T10:46:31.993Z,669.38
2019-02-08T10:47:32.056Z,663.75
2019-02-08T10:48:32.069Z,646.88
2019-02-08T10:49:32.062Z,618.75
2019-02-08T10:50:32.059Z,596.25
2019-02-08T10:51:32.078Z,596.25
2019-02-08T10:52:32.067Z,607.50
2019-02-08T10:53:32.086Z,601.88
2019-02-08T10:54:32.098Z,596.25
2019-02-08T10:55:32.116Z,573.75
2019-02-08T10:56:32.131Z,579.38
2019-02-08T10:57:32.151Z,590.63
2019-02-08T10:58:32.165Z,601.88
2019-02-08T10:59:32.182Z,607.50
2019-02-08T11:00:32.201Z,613.13
2019-02-08T11:01:32.217Z,607.50
2019-02-08T11:02:32.235Z,607.50
2019-02-08T11:03:32.256Z,607.50
2019-02-08T11:04:32.288Z,613.13
2019-02-08T11:05:32.285Z,613.13
2019-02-08T11:06:32.306Z,618.75
2019-02-08T11:07:32.321Z,635.63
2019-02-08T11:08:32.337Z,646.88
2019-02-08T11:09:32.353Z,646.88
2019-02-08T11:10:32.371Z,635.63
2019-02-08T11:11:32.390Z,624.38
2019-02-08T11:12:32.406Z,618.75
2019-02-08T11:13:32.421Z,613.13
2019-02-08T11:14:32.439Z,618.75
2019-02-08T11:15:32.461Z,630.00
2019-02-08T11:16:32.476Z,630.00
2019-02-08T11:17:32.493Z,618.75
2019-02-08T11:18:32.512Z,613.13
2019-02-08T11:19:32.529Z,618.75
2019-02-08T11:20:32.547Z,624.38
2019-02-08T11:21:32.568Z,635.63
2019-02-08T11:22:32.583Z,652.50
2019-02-08T11:23:32.603Z,658.13
2019-02-08T11:24:32.620Z,641.25
2019-02-08T11:25:32.638Z,613.13
2019-02-08T11:26:32.656Z,630.00
2019-02-08T11:27:32.676Z,652.50
2019-02-08T11:28:32.690Z,658.13
2019-02-08T11:29:32.710Z,652.50
2019-02-08T11:30:32.725Z,646.88
2019-02-08T11:31:32.752Z,652.50
2019-02-08T11:32:42.870Z,675.00
2019-02-08T11:33:32.780Z,675.00
2019-02-08T11:34:32.796Z,686.25
2019-02-08T11:35:32.814Z,675.00
2019-02-08T11:36:32.834Z,686.25
2019-02-08T11:37:32.850Z,708.75
2019-02-08T11:38:32.870Z,708.75
2019-02-08T11:39:32.887Z,697.50
2019-02-08T11:40:32.908Z,675.00
2019-02-08T11:41:32.922Z,663.75
2019-02-08T11:42:32.941Z,686.25
2019-02-08T11:43:32.960Z,708.75
2019-02-08T11:44:32.978Z,725.63
2019-02-08T11:45:32.994Z,697.50
2019-02-08T11:46:33.018Z,663.75
2019-02-08T11:47:33.035Z,635.63
2019-02-08T11:48:33.051Z,517.50
2019-02-08T11:49:33.068Z,438.75
2019-02-08T11:50:33.087Z,421.88
2019-02-08T11:51:33.106Z,466.88
2019-02-08T11:52:33.123Z,511.88
2019-02-08T11:53:33.140Z,517.50
2019-02-08T11:54:33.159Z,528.75
2019-02-08T11:55:33.181Z,534.38
2019-02-08T11:56:33.194Z,545.63
2019-02-08T11:57:34.334Z,556.88
2019-02-08T11:58:33.231Z,551.25
2019-02-08T11:59:33.256Z,556.88
2019-02-08T12:00:33.271Z,568.13
2019-02-08T12:01:33.286Z,568.13
2019-02-08T12:02:40.254Z,579.38
2019-02-08T12:03:33.323Z,585.00
2019-02-08T12:04:33.341Z,585.00
2019-02-08T12:05:33.358Z,585.00
2019-02-08T12:06:33.377Z,579.38
2019-02-08T12:07:33.394Z,579.38
2019-02-08T12:08:33.412Z,590.63
2019-02-08T12:09:33.426Z,613.13
2019-02-08T12:10:33.452Z,613.13
2019-02-08T12:11:33.466Z,590.63
2019-02-08T12:12:33.482Z,579.38
2019-02-08T12:13:33.502Z,573.75
2019-02-08T12:14:33.521Z,545.63
2019-02-08T12:15:33.539Z,551.25
2019-02-08T12:16:33.555Z,562.50
2019-02-08T12:17:33.574Z,562.50
2019-02-08T12:18:33.590Z,551.25
2019-02-08T12:19:33.612Z,534.38
2019-02-08T12:20:33.628Z,517.50
2019-02-08T12:21:33.648Z,517.50
2019-02-08T12:22:33.664Z,517.50
2019-02-08T12:23:33.685Z,495.00
2019-02-08T12:24:33.703Z,472.50
2019-02-08T12:25:33.722Z,450.00
2019-02-08T12:26:37.903Z,421.88
2019-02-08T12:27:33.761Z,399.38
2019-02-08T12:28:33.793Z,376.88
2019-02-08T12:29:33.863Z,371.25
2019-02-08T12:30:33.868Z,371.25
2019-02-08T12:31:33.860Z,388.13
2019-02-08T12:32:33.920Z,393.75
2019-02-08T12:33:33.938Z,416.25
2019-02-08T12:34:33.915Z,438.75
2019-02-08T12:35:33.915Z,444.38
2019-02-08T12:36:33.934Z,472.50
2019-02-08T12:37:33.940Z,495.00
2019-02-08T12:38:33.960Z,523.13
2019-02-08T12:39:33.985Z,511.88
2019-02-08T12:40:33.997Z,489.38
2019-02-08T12:41:34.014Z,466.88
2019-02-08T12:42:34.033Z,472.50
2019-02-08T12:43:34.051Z,438.75
2019-02-08T12:44:34.069Z,421.88
2019-02-08T12:45:34.089Z,405.00
2019-02-08T12:46:34.104Z,365.63
2019-02-08T12:47:34.123Z,354.38
2019-02-08T12:48:34.140Z,376.88
2019-02-08T12:49:34.161Z,382.50
2019-02-08T12:50:34.177Z,371.25
2019-02-08T12:51:34.442Z,371.25
2019-02-08T12:52:34.213Z,371.25
2019-02-08T12:53:34.233Z,371.25
2019-02-08T12:54:34.251Z,376.88